createdAt,value
2019-02-15T00:00:38.596Z,2.04
2019-02-15T00:01:38.587Z,2.22
2019-02-15T00:02:38.554Z,2.30
2019-02-15T00:03:38.546Z,2.62
2019-02-15T00:04:39.757Z,2.74
2019-02-15T00:05:38.590Z,2.65
2019-02-15T00:06:38.512Z,2.71
2019-02-15T00:07:38.515Z,2.73
2019-02-15T00:08:38.510Z,2.74
2019-02-15T00:09:38.500Z,2.74
2019-02-15T00:10:38.486Z,2.58
2019-02-15T00:11:38.479Z,2.77
2019-02-15T00:12:38.453Z,2.71
2019-02-15T00:13:38.466Z,2.58
2019-02-15T00:14:38.437Z,2.71
2019-02-15T00:15:38.430Z,2.68
2019-02-15T00:16:38.424Z,2.63
2019-02-15T00:17:38.418Z,2.69
2019-02-15T00:18:38.404Z,2.61
2019-02-15T00:19:38.395Z,2.58
2019-02-15T00:20:38.379Z,2.68
2019-02-15T00:21:38.362Z,2.56
2019-02-15T00:22:38.346Z,2.73
2019-02-15T00:23:38.335Z,2.73
2019-02-15T00:24:38.324Z,2.73
2019-02-15T00:25:38.335Z,2.71
2019-02-15T00:26:38.305Z,2.76
2019-02-15T00:27:38.301Z,2.74
2019-02-15T00:28:38.326Z,2.56
2019-02-15T00:29:38.301Z,2.47
2019-02-15T00:30:38.290Z,2.25
2019-02-15T00:31:38.265Z,2.01
2019-02-15T00:32:38.242Z,1.92
2019-02-15T00:33:38.240Z,1.95
2019-02-15T00:34:38.225Z,1.79
2019-02-15T00:35:38.227Z,1.67
2019-02-15T00:36:38.218Z,1.53
2019-02-15T00:37:38.207Z,1.43
2019-02-15T00:38:38.197Z,1.35
2019-02-15T00:39:38.214Z,1.21
2019-02-15T00:40:38.179Z,1.14
2019-02-15T00:41:38.153Z,1.00
2019-02-15T00:42:38.155Z,0.89
2019-02-15T00:43:38.128Z,0.74
2019-02-15T00:44:38.119Z,0.62
2019-02-15T00:45:38.121Z,0.49
2019-02-15T00:46:38.119Z,0.35
2019-02-15T00:47:38.089Z,0.30
2019-02-15T00:48:38.078Z,0.05
2019-02-15T00:49:38.071Z,-0.05
2019-02-15T00:50:38.080Z,-0.16
2019-02-15T00:51:38.052Z,-0.27
2019-02-15T00:52:38.034Z,-0.39
2019-02-15T00:53:38.023Z,-0.52
2019-02-15T00:54:38.034Z,-0.44
2019-02-15T00:55:38.014Z,-0.45
2019-02-15T00:56:37.993Z,-0.32
2019-02-15T00:57:37.988Z,-0.41
2019-02-15T00:58:38.003Z,-0.55
2019-02-15T00:59:37.974Z,-0.68
2019-02-15T01:00:37.974Z,-0.77
2019-02-15T01:01:37.940Z,-0.90
2019-02-15T01:02:37.931Z,-0.78
2019-02-15T01:03:37.923Z,-0.49
2019-02-15T01:04:37.912Z,-0.38
2019-02-15T01:05:37.902Z,-0.56
2019-02-15T01:06:37.912Z,-0.63
2019-02-15T01:07:37.892Z,-0.77
2019-02-15T01:08:37.869Z,-0.85
2019-02-15T01:09:37.883Z,-1.05
2019-02-15T01:10:37.855Z,-1.13
2019-02-15T01:11:37.895Z,-1.13
2019-02-15T01:12:37.834Z,-1.38
2019-02-15T01:13:37.815Z,-1.31
2019-02-15T01:14:37.820Z,-1.32
2019-02-15T01:15:37.827Z,-1.35
2019-02-15T01:16:37.803Z,-1.35
2019-02-15T01:17:37.776Z,-1.38
2019-02-15T01:18:37.784Z,-1.36
2019-02-15T01:19:37.769Z,-1.35
2019-02-15T01:20:37.748Z,-1.13
2019-02-15T01:21:37.751Z,-1.02
2019-02-15T01:22:37.727Z,-0.92
2019-02-15T01:23:37.717Z,-0.99
2019-02-15T01:24:37.707Z,-1.05
2019-02-15T01:25:37.690Z,-1.11
2019-02-15T01:26:37.719Z,-1.28
2019-02-15T01:27:37.670Z,-1.35
2019-02-15T01:28:37.663Z,-1.31
2019-02-15T01:29:37.669Z,-1.28
2019-02-15T01:30:37.643Z,-1.25
2019-02-15T01:31:37.651Z,-1.23
2019-02-15T01:32:37.618Z,-1.29
2019-02-15T01:33:37.623Z,-1.20
2019-02-15T01:34:37.601Z,-1.25
2019-02-15T01:35:37.591Z,-1.32
2019-02-15T01:36:37.607Z,-1.33
2019-02-15T01:37:37.603Z,-1.36
2019-02-15T01:38:37.587Z,-1.38
2019-02-15T01:39:37.549Z,-1.36
2019-02-15T01:40:37.546Z,-1.38
2019-02-15T01:41:37.547Z,-1.20
2019-02-15T01:42:37.526Z,-1.18
2019-02-15T01:43:40.202Z,-1.08
2019-02-15T01:44:37.494Z,-0.96
2019-02-15T01:45:37.485Z,-1.02
2019-02-15T01:46:37.487Z,-1.21
2019-02-15T01:47:37.469Z,-1.35
2019-02-15T01:48:37.451Z,-1.38
2019-02-15T01:49:37.440Z,-1.33
2019-02-15T01:50:37.431Z,-1.43
2019-02-15T01:51:37.472Z,-1.39
2019-02-15T01:52:37.412Z,-1.57
2019-02-15T01:53:37.400Z,-1.54
2019-02-15T01:54:37.390Z,-1.65
2019-02-15T01:55:37.384Z,-1.70
2019-02-15T01:56:37.399Z,-1.67
2019-02-15T01:57:37.371Z,-1.67
2019-02-15T01:58:37.354Z,-1.78
2019-02-15T01:59:37.378Z,-1.88
2019-02-15T02:00:37.339Z,-1.83
2019-02-15T02:01:37.330Z,-1.72
2019-02-15T02:02:37.323Z,-1.49
2019-02-15T02:03:37.302Z,-1.35
2019-02-15T02:04:37.300Z,-1.08
2019-02-15T02:05:37.302Z,-0.78
2019-02-15T02:06:37.274Z,-0.52
2019-02-15T02:07:37.283Z,-0.38
2019-02-15T02:08:37.265Z,-0.34
2019-02-15T02:09:37.237Z,-0.37
2019-02-15T02:10:37.227Z,-0.37
2019-02-15T02:11:37.270Z,-0.53
2019-02-15T02:12:37.244Z,-0.62
2019-02-15T02:13:37.196Z,-0.74
2019-02-15T02:14:37.195Z,-0.92
2019-02-15T02:15:37.193Z,-0.95
2019-02-15T02:16:37.176Z,-1.08
2019-02-15T02:17:37.176Z,-1.18
2019-02-15T02:18:37.155Z,-1.25
2019-02-15T02:19:37.156Z,-1.39
2019-02-15T02:20:37.170Z,-1.44
2019-02-15T02:21:37.115Z,-1.57
2019-02-15T02:22:37.217Z,-1.59
2019-02-15T02:23:37.108Z,-1.71
2019-02-15T02:24:37.092Z,-1.75
2019-02-15T02:25:37.076Z,-1.88
2019-02-15T02:26:37.066Z,-1.78
2019-02-15T02:27:37.086Z,-1.86
2019-02-15T02:28:37.064Z,-1.80
2019-02-15T02:29:37.056Z,-1.64
2019-02-15T02:30:37.051Z,-1.33
2019-02-15T02:31:37.039Z,-1.54
2019-02-15T02:32:37.023Z,-1.56
2019-02-15T02:33:37.022Z,-1.50
2019-02-15T02:34:36.992Z,-1.65
2019-02-15T02:35:36.987Z,-1.67
2019-02-15T02:36:36.998Z,-1.70
2019-02-15T02:37:37.063Z,-1.85
2019-02-15T02:38:36.950Z,-1.93
2019-02-15T02:39:36.976Z,-1.95
2019-02-15T02:40:36.980Z,-1.77
2019-02-15T02:41:36.933Z,-1.46
2019-02-15T02:42:36.931Z,-1.23
2019-02-15T02:43:36.890Z,-1.10
2019-02-15T02:44:36.911Z,-1.25
2019-02-15T02:45:36.877Z,-1.38
2019-02-15T02:46:36.874Z,-1.39
2019-02-15T02:47:36.891Z,-1.44
2019-02-15T02:48:36.848Z,-1.44
2019-02-15T02:49:36.854Z,-1.49
2019-02-15T02:50:36.849Z,-1.41
2019-02-15T02:51:36.828Z,-1.39
2019-02-15T02:52:36.850Z,-1.44
2019-02-15T02:53:36.893Z,-1.38
2019-02-15T02:54:36.827Z,-1.39
2019-02-15T02:55:36.795Z,-1.53
2019-02-15T02:56:36.777Z,-1.57
2019-02-15T02:57:36.791Z,-1.67
2019-02-15T02:58:36.783Z,-1.62
2019-02-15T02:59:36.757Z,-1.74
2019-02-15T03:00:36.740Z,-1.86
2019-02-15T03:01:36.739Z,-1.74
2019-02-15T03:02:36.732Z,-1.72
2019-02-15T03:03:36.714Z,-1.65
2019-02-15T03:04:36.685Z,-1.62
2019-02-15T03:05:36.686Z,-1.46
2019-02-15T03:06:36.662Z,-1.33
2019-02-15T03:07:36.703Z,-1.36
2019-02-15T03:08:36.667Z,-1.43
2019-02-15T03:09:36.700Z,-1.38
2019-02-15T03:10:36.627Z,-1.57
2019-02-15T03:11:36.606Z,-1.72
2019-02-15T03:12:36.601Z,-1.68
2019-02-15T03:13:36.596Z,-1.78
2019-02-15T03:14:36.594Z,-1.88
2019-02-15T03:15:36.574Z,-1.98
2019-02-15T03:16:36.562Z,-1.93
2019-02-15T03:17:36.559Z,-2.07
2019-02-15T03:18:36.542Z,-2.08
2019-02-15T03:19:36.561Z,-2.28
2019-02-15T03:20:36.561Z,-2.28
2019-02-15T03:21:36.504Z,-2.22
2019-02-15T03:22:36.497Z,-1.93
2019-02-15T03:23:36.506Z,-1.68
2019-02-15T03:24:36.485Z,-1.74
2019-02-15T03:25:36.514Z,-1.92
2019-02-15T03:26:36.487Z,-1.93
2019-02-15T03:27:36.505Z,-1.90
2019-02-15T03:28:36.446Z,-1.71
2019-02-15T03:29:36.423Z,-1.53
2019-02-15T03:30:36.434Z,-1.50
2019-02-15T03:31:36.411Z,-1.41
2019-02-15T03:32:36.412Z,-1.33
2019-02-15T03:33:36.395Z,-1.35
2019-02-15T03:34:36.625Z,-1.35
2019-02-15T03:35:36.374Z,-1.00
2019-02-15T03:36:36.358Z,-0.85
2019-02-15T03:37:36.352Z,-0.56
2019-02-15T03:38:36.359Z,-0.49
2019-02-15T03:39:36.366Z,-0.52
2019-02-15T03:40:36.328Z,-0.52
2019-02-15T03:41:36.421Z,-0.56
2019-02-15T03:42:36.482Z,-0.56
2019-02-15T03:43:36.513Z,-0.39
2019-02-15T03:44:36.488Z,-0.41
2019-02-15T03:45:36.354Z,-0.39
2019-02-15T03:46:36.432Z,-0.37
2019-02-15T03:47:36.383Z,-0.42
2019-02-15T03:48:36.528Z,-0.45
2019-02-15T03:49:36.362Z,-0.58
2019-02-15T03:50:36.369Z,-0.55
2019-02-15T03:51:36.397Z,-0.63
2019-02-15T03:52:36.329Z,-0.58
2019-02-15T03:53:36.481Z,-0.55
2019-02-15T03:54:36.271Z,-0.65
2019-02-15T03:55:36.158Z,-0.62
2019-02-15T03:56:36.158Z,-0.58
2019-02-15T03:57:36.287Z,-0.53
2019-02-15T03:58:36.548Z,-0.59
2019-02-15T03:59:36.222Z,-0.67
2019-02-15T04:00:36.248Z,-0.53
2019-02-15T04:01:36.143Z,-0.17
2019-02-15T04:02:36.094Z,-0.23
2019-02-15T04:03:36.124Z,-0.12
2019-02-15T04:04:36.082Z,0.05
2019-02-15T04:05:36.054Z,-0.01
2019-02-15T04:06:36.046Z,-0.01
2019-02-15T04:07:36.040Z,0.04
2019-02-15T04:08:36.030Z,0.05
2019-02-15T04:09:36.007Z,0.10
2019-02-15T04:10:35.998Z,0.07
2019-02-15T04:11:36.009Z,-0.06
2019-02-15T04:12:35.977Z,-0.05
2019-02-15T04:13:35.979Z,0.05
2019-02-15T04:14:35.973Z,0.08
2019-02-15T04:15:35.963Z,0.16
2019-02-15T04:16:35.935Z,0.25
2019-02-15T04:17:35.952Z,0.28
2019-02-15T04:18:35.946Z,0.31
2019-02-15T04:19:35.913Z,0.34
2019-02-15T04:20:35.909Z,0.26
2019-02-15T04:21:35.882Z,0.22
2019-02-15T04:22:35.878Z,0.37
2019-02-15T04:23:36.159Z,0.28
2019-02-15T04:24:35.863Z,0.45
2019-02-15T04:25:35.850Z,0.59
2019-02-15T04:26:35.879Z,0.60
2019-02-15T04:27:35.826Z,0.43
2019-02-15T04:28:35.847Z,0.53
2019-02-15T04:29:35.830Z,0.48
2019-02-15T04:30:35.798Z,0.33
2019-02-15T04:31:35.882Z,0.33
2019-02-15T04:32:35.779Z,0.34
2019-02-15T04:33:35.759Z,0.34
2019-02-15T04:34:35.786Z,0.33
2019-02-15T04:35:35.747Z,0.17
2019-02-15T04:36:35.735Z,0.05
2019-02-15T04:37:35.719Z,-0.01
2019-02-15T04:38:35.739Z,-0.19
2019-02-15T04:39:35.714Z,-0.26
2019-02-15T04:40:35.705Z,-0.45
2019-02-15T04:41:35.676Z,-0.52
2019-02-15T04:42:35.688Z,-0.73
2019-02-15T04:43:35.656Z,-0.85
2019-02-15T04:44:42.593Z,-0.99
2019-02-15T04:45:36.655Z,-1.15
2019-02-15T04:46:35.633Z,-1.18
2019-02-15T04:47:35.622Z,-1.23
2019-02-15T04:48:35.644Z,-1.38
2019-02-15T04:49:35.634Z,-1.23
2019-02-15T04:50:35.600Z,-1.23
2019-02-15T04:51:35.581Z,-1.31
2019-02-15T04:52:35.573Z,-1.36
2019-02-15T04:53:35.607Z,-1.39
2019-02-15T04:54:35.553Z,-1.46
2019-02-15T04:55:35.547Z,-1.50
2019-02-15T04:56:35.539Z,-1.54
2019-02-15T04:57:35.510Z,-1.68
2019-02-15T04:58:35.505Z,-1.71
2019-02-15T04:59:35.503Z,-1.93
2019-02-15T05:00:35.476Z,-1.98
2019-02-15T05:01:35.467Z,-2.19
2019-02-15T05:02:35.472Z,-2.10
2019-02-15T05:03:35.459Z,-2.22
2019-02-15T05:04:35.456Z,-2.35
2019-02-15T05:05:35.435Z,-2.38
2019-02-15T05:06:35.468Z,-2.38
2019-02-15T05:07:35.408Z,-2.41
2019-02-15T05:08:35.402Z,-2.40
2019-02-15T05:09:35.409Z,-2.37
2019-02-15T05:10:35.381Z,-2.37
2019-02-15T05:11:35.367Z,-2.24
2019-02-15T05:12:35.357Z,-2.35
2019-02-15T05:13:35.367Z,-2.40
2019-02-15T05:14:35.352Z,-2.41
2019-02-15T05:15:35.340Z,-2.07
2019-02-15T05:16:35.327Z,-2.10
2019-02-15T05:17:35.330Z,-2.08
2019-02-15T05:18:35.319Z,-1.61
2019-02-15T05:19:35.309Z,-1.31
2019-02-15T05:20:35.274Z,-1.07
2019-02-15T05:21:35.265Z,-0.93
2019-02-15T05:22:35.253Z,-1.03
2019-02-15T05:23:35.258Z,-1.00
2019-02-15T05:24:35.249Z,-1.18
2019-02-15T05:25:35.252Z,-1.18
2019-02-15T05:26:35.235Z,-1.35
2019-02-15T05:27:35.228Z,-1.36
2019-02-15T05:28:35.212Z,-1.39
2019-02-15T05:29:35.202Z,-1.46
2019-02-15T05:30:35.212Z,-1.41
2019-02-15T05:31:35.171Z,-1.41
2019-02-15T05:32:35.166Z,-1.23
2019-02-15T05:33:35.726Z,-1.00
2019-02-15T05:34:35.141Z,-0.83
2019-02-15T05:35:35.156Z,-0.56
2019-02-15T05:36:35.134Z,-0.23
2019-02-15T05:37:35.115Z,-0.08
2019-02-15T05:38:35.104Z,0.02
2019-02-15T05:39:35.086Z,0.02
2019-02-15T05:40:35.102Z,-0.08
2019-02-15T05:41:35.085Z,-0.35
2019-02-15T05:42:35.055Z,-0.37
2019-02-15T05:43:35.071Z,-0.45
2019-02-15T05:44:35.054Z,-0.49
2019-02-15T05:45:35.079Z,-0.55
2019-02-15T05:46:35.063Z,-0.55
2019-02-15T05:47:35.015Z,-0.53
2019-02-15T05:48:35.010Z,-0.68
2019-02-15T05:49:34.990Z,-0.73
2019-02-15T05:50:34.999Z,-0.96
2019-02-15T05:51:34.962Z,-1.17
2019-02-15T05:52:34.957Z,-1.25
2019-02-15T05:53:34.944Z,-1.46
2019-02-15T05:54:34.953Z,-1.43
2019-02-15T05:55:34.950Z,-1.43
2019-02-15T05:56:34.935Z,-1.59
2019-02-15T05:57:34.974Z,-1.64
2019-02-15T05:58:34.914Z,-1.68
2019-02-15T05:59:34.888Z,-1.75
2019-02-15T06:00:37.316Z,-1.80
2019-02-15T06:01:34.880Z,-1.95
2019-02-15T06:02:34.859Z,-2.03
2019-02-15T06:03:34.880Z,-1.89
2019-02-15T06:04:34.851Z,-1.32
2019-02-15T06:05:34.836Z,-1.07
2019-02-15T06:06:34.836Z,-0.92
2019-02-15T06:07:34.839Z,-0.65
2019-02-15T06:08:34.821Z,-0.42
2019-02-15T06:09:34.787Z,-0.34
2019-02-15T06:10:34.777Z,-0.23
2019-02-15T06:11:34.786Z,0.12
2019-02-15T06:12:34.764Z,0.16
2019-02-15T06:13:34.755Z,0.16
2019-02-15T06:14:34.735Z,0.08
2019-02-15T06:15:34.724Z,-0.01
2019-02-15T06:16:34.747Z,-0.08
2019-02-15T06:17:34.699Z,0.01
2019-02-15T06:18:34.688Z,0.02
2019-02-15T06:19:34.681Z,0.22
2019-02-15T06:20:34.667Z,0.19
2019-02-15T06:21:34.679Z,0.20
2019-02-15T06:22:34.665Z,0.35
2019-02-15T06:23:34.653Z,0.30
2019-02-15T06:24:34.653Z,0.49
2019-02-15T06:25:34.636Z,0.51
2019-02-15T06:26:34.674Z,0.44
2019-02-15T06:27:34.612Z,0.43
2019-02-15T06:28:34.593Z,0.48
2019-02-15T06:29:34.601Z,0.48
2019-02-15T06:30:34.613Z,0.41
2019-02-15T06:31:34.593Z,0.70
2019-02-15T06:32:34.588Z,0.63
2019-02-15T06:33:34.566Z,0.62
2019-02-15T06:34:34.554Z,0.71
2019-02-15T06:35:34.519Z,0.88
2019-02-15T06:36:34.525Z,0.90
2019-02-15T06:37:34.506Z,0.86
2019-02-15T06:38:35.148Z,0.82
2019-02-15T06:39:34.486Z,0.74
2019-02-15T06:40:34.461Z,0.88
2019-02-15T06:41:34.464Z,0.70
2019-02-15T06:42:34.458Z,0.63
2019-02-15T06:43:34.484Z,0.43
2019-02-15T06:44:34.425Z,0.40
2019-02-15T06:45:34.432Z,0.35
2019-02-15T06:46:34.444Z,0.20
2019-02-15T06:47:34.433Z,0.17
2019-02-15T06:48:34.395Z,-0.03
2019-02-15T06:49:34.407Z,-0.17
2019-02-15T06:50:34.384Z,-0.38
2019-02-15T06:51:34.370Z,-0.39
2019-02-15T06:52:34.338Z,-0.49
2019-02-15T06:53:34.334Z,-0.37
2019-02-15T06:54:34.336Z,-0.23
2019-02-15T06:55:34.308Z,-0.21
2019-02-15T06:56:34.306Z,-0.03
2019-02-15T06:57:34.302Z,-0.01
2019-02-15T06:58:34.315Z,-0.01
2019-02-15T06:59:34.270Z,-0.01
2019-02-15T07:00:34.261Z,0.12
2019-02-15T07:01:34.270Z,0.08
2019-02-15T07:02:34.254Z,0.43
2019-02-15T07:03:34.266Z,0.77
2019-02-15T07:04:34.248Z,1.07
2019-02-15T07:05:34.203Z,1.11
2019-02-15T07:06:34.214Z,1.34
2019-02-15T07:07:34.223Z,1.52
2019-02-15T07:08:34.177Z,1.65
2019-02-15T07:09:34.214Z,1.63
2019-02-15T07:10:34.226Z,1.56
2019-02-15T07:11:34.176Z,1.57
2019-02-15T07:12:34.153Z,1.53
2019-02-15T07:13:34.157Z,1.60
2019-02-15T07:14:34.107Z,1.46
2019-02-15T07:15:34.188Z,1.49
2019-02-15T07:16:34.091Z,1.46
2019-02-15T07:17:34.100Z,1.38
2019-02-15T07:18:34.127Z,1.38
2019-02-15T07:19:34.069Z,1.38
2019-02-15T07:20:34.067Z,1.42
2019-02-15T07:21:34.083Z,1.35
2019-02-15T07:22:34.091Z,1.34
2019-02-15T07:23:34.034Z,1.35
2019-02-15T07:24:34.048Z,1.25
2019-02-15T07:25:34.026Z,1.26
2019-02-15T07:26:33.990Z,1.29
2019-02-15T07:27:34.380Z,1.31
2019-02-15T07:28:33.964Z,1.47
2019-02-15T07:29:33.953Z,1.56
2019-02-15T07:30:33.957Z,1.56
2019-02-15T07:31:33.940Z,1.75
2019-02-15T07:32:33.936Z,1.83
2019-02-15T07:33:33.940Z,1.86
2019-02-15T07:34:33.944Z,2.00
2019-02-15T07:35:33.895Z,2.02
2019-02-15T07:36:33.904Z,2.05
2019-02-15T07:37:33.917Z,2.14
2019-02-15T07:38:33.865Z,2.09
2019-02-15T07:39:33.851Z,2.18
2019-02-15T07:40:33.842Z,2.59
2019-02-15T07:41:33.836Z,3.17
2019-02-15T07:42:33.891Z,3.63
2019-02-15T07:43:33.827Z,4.08
2019-02-15T07:44:33.806Z,4.50
2019-02-15T07:45:42.475Z,4.67
2019-02-15T07:46:34.784Z,5.15
2019-02-15T07:47:33.803Z,5.47
2019-02-15T07:48:33.786Z,5.81
2019-02-15T07:49:33.769Z,5.87
2019-02-15T07:50:33.739Z,6.20
2019-02-15T07:51:33.727Z,6.19
2019-02-15T07:52:33.777Z,5.93
2019-02-15T07:53:33.732Z,6.33
2019-02-15T07:54:33.752Z,6.60
2019-02-15T07:55:33.686Z,6.72
2019-02-15T07:56:33.694Z,7.26
2019-02-15T07:57:34.035Z,7.73
2019-02-15T07:58:33.689Z,8.17
2019-02-15T07:59:33.642Z,8.58
2019-02-15T08:00:33.656Z,8.82
2019-02-15T08:01:34.020Z,8.98
2019-02-15T08:02:33.626Z,8.64
2019-02-15T08:03:33.612Z,8.27
2019-02-15T08:04:33.612Z,8.42
2019-02-15T08:05:33.643Z,8.02
2019-02-15T08:06:33.579Z,7.29
2019-02-15T08:07:33.569Z,7.50
2019-02-15T08:08:33.553Z,7.91
2019-02-15T08:09:33.577Z,8.47
2019-02-15T08:10:33.563Z,8.93
2019-02-15T08:11:33.521Z,9.19
2019-02-15T08:12:33.526Z,9.20
2019-02-15T08:13:33.497Z,8.96
2019-02-15T08:14:33.531Z,8.27
2019-02-15T08:15:36.345Z,8.10
2019-02-15T08:16:33.501Z,8.12
2019-02-15T08:17:33.519Z,7.73
2019-02-15T08:18:33.451Z,7.37
2019-02-15T08:19:33.465Z,7.52
2019-02-15T08:20:33.421Z,7.55
2019-02-15T08:21:33.436Z,7.71
2019-02-15T08:22:33.433Z,7.84
2019-02-15T08:23:33.392Z,7.76
2019-02-15T08:24:33.398Z,8.29
2019-02-15T08:25:33.413Z,8.57
2019-02-15T08:26:33.360Z,9.06
2019-02-15T08:27:33.386Z,9.99
2019-02-15T08:28:33.418Z,10.47
2019-02-15T08:29:33.331Z,10.29
2019-02-15T08:30:33.338Z,10.11
2019-02-15T08:31:33.310Z,9.74
2019-02-15T08:32:34.628Z,9.98
2019-02-15T08:33:33.309Z,9.68
2019-02-15T08:34:33.279Z,10.17
2019-02-15T08:35:33.270Z,10.49
2019-02-15T08:36:33.252Z,10.87
2019-02-15T08:37:33.261Z,10.62
2019-02-15T08:38:33.239Z,10.91
2019-02-15T08:39:33.225Z,11.05
2019-02-15T08:40:33.231Z,11.45
2019-02-15T08:41:33.213Z,11.39
2019-02-15T08:42:33.214Z,11.62
2019-02-15T08:43:34.577Z,11.88
2019-02-15T08:44:33.173Z,12.03
2019-02-15T08:45:33.167Z,11.70
2019-02-15T08:46:33.149Z,11.45
2019-02-15T08:47:33.154Z,10.63
2019-02-15T08:48:33.127Z,9.67
2019-02-15T08:49:33.124Z,8.85
2019-02-15T08:50:33.117Z,8.65
2019-02-15T08:51:33.115Z,8.29
2019-02-15T08:52:33.106Z,7.99
2019-02-15T08:53:33.081Z,7.82
2019-02-15T08:54:33.063Z,7.67
2019-02-15T08:55:33.053Z,7.42
2019-02-15T08:56:33.043Z,7.29
2019-02-15T08:57:33.026Z,7.51
2019-02-15T08:58:33.031Z,7.70
2019-02-15T08:59:33.020Z,7.94
2019-02-15T09:00:33.007Z,7.94
2019-02-15T09:01:32.989Z,7.76
2019-02-15T09:02:32.997Z,7.63
2019-02-15T09:03:32.980Z,7.60
2019-02-15T09:04:32.961Z,7.95
2019-02-15T09:05:32.961Z,8.00
2019-02-15T09:06:32.944Z,8.03
2019-02-15T09:07:32.939Z,7.52
2019-02-15T09:08:32.958Z,7.52
2019-02-15T09:09:32.904Z,7.19
2019-02-15T09:10:32.900Z,7.37
2019-02-15T09:11:32.912Z,7.50
2019-02-15T09:12:32.881Z,7.34
2019-02-15T09:13:32.884Z,7.60
2019-02-15T09:14:34.358Z,8.24
2019-02-15T09:15:34.475Z,8.28
2019-02-15T09:21:45.165Z,9.37
2019-02-15T09:22:44.764Z,9.30
2019-02-15T09:23:44.973Z,9.60
2019-02-15T09:26:22.877Z,10.16
2019-02-15T09:27:21.980Z,10.28
2019-02-15T09:28:23.097Z,10.28
2019-02-15T09:29:22.386Z,10.22
2019-02-15T09:30:23.621Z,10.46
2019-02-15T09:31:22.724Z,10.29
2019-02-15T09:32:21.897Z,10.52
2019-02-15T09:33:25.997Z,10.22
2019-02-15T09:34:22.423Z,10.22
2019-02-15T09:35:21.614Z,10.78
2019-02-15T09:36:22.129Z,11.27
2019-02-15T09:37:55.723Z,11.44
2019-02-15T09:39:06.586Z,11.21
2019-02-15T09:39:24.710Z,10.69
2019-02-15T09:40:21.779Z,10.66
2019-02-15T09:41:23.297Z,10.68
2019-02-15T09:42:26.472Z,10.73
2019-02-15T09:43:22.590Z,10.75
2019-02-15T09:44:26.285Z,10.73
2019-02-15T09:45:22.503Z,10.72
2019-02-15T09:46:20.894Z,10.68
2019-02-15T09:47:20.869Z,10.52
2019-02-15T09:48:20.851Z,10.39
2019-02-15T09:49:22.216Z,10.42
2019-02-15T09:50:20.829Z,10.75
2019-02-15T09:51:20.828Z,10.51
2019-02-15T09:52:20.896Z,10.76
2019-02-15T09:53:21.212Z,10.63
2019-02-15T09:54:20.911Z,10.80
2019-02-15T09:55:20.919Z,10.70
2019-02-15T09:56:20.899Z,11.17
2019-02-15T09:57:21.029Z,11.49
2019-02-15T09:58:21.010Z,11.35
2019-02-15T09:59:20.915Z,11.38
2019-02-15T10:00:20.911Z,11.45
2019-02-15T10:01:20.817Z,11.57
2019-02-15T10:02:20.710Z,11.72
2019-02-15T10:03:20.709Z,11.66
2019-02-15T10:04:20.772Z,11.51
2019-02-15T10:05:20.851Z,11.59
2019-02-15T10:06:20.687Z,11.54
2019-02-15T10:07:20.759Z,11.05
2019-02-15T10:08:20.846Z,11.17
2019-02-15T10:09:20.723Z,11.09
2019-02-15T10:10:20.691Z,10.93
2019-02-15T10:11:20.720Z,11.09
2019-02-15T10:12:20.625Z,11.02
2019-02-15T10:13:20.613Z,11.30
2019-02-15T10:14:20.752Z,11.56
2019-02-15T10:15:20.610Z,11.56
2019-02-15T10:16:28.815Z,11.93
2019-02-15T10:17:21.669Z,12.33
2019-02-15T10:18:20.715Z,11.96
2019-02-15T10:19:22.625Z,12.15
2019-02-15T10:20:20.560Z,11.93
2019-02-15T10:21:20.536Z,12.26
2019-02-15T10:22:20.545Z,12.41
2019-02-15T10:23:20.628Z,12.13
2019-02-15T10:24:20.972Z,12.00
2019-02-15T10:25:20.468Z,11.70
2019-02-15T10:26:20.675Z,11.78
2019-02-15T10:27:20.447Z,12.26
2019-02-15T10:28:21.019Z,12.66
2019-02-15T10:29:20.461Z,12.61
2019-02-15T10:30:20.456Z,12.81
2019-02-15T10:31:20.474Z,13.01
2019-02-15T10:32:20.581Z,12.89
2019-02-15T10:33:20.479Z,13.12
2019-02-15T10:34:20.695Z,12.67
2019-02-15T10:35:20.493Z,12.95
2019-02-15T10:36:20.419Z,12.74
2019-02-15T10:37:20.577Z,12.70
2019-02-15T10:38:20.315Z,12.33
2019-02-15T10:39:20.310Z,12.48
2019-02-15T10:40:20.308Z,12.33
2019-02-15T10:41:20.286Z,12.70
2019-02-15T10:42:20.272Z,12.96
2019-02-15T10:43:20.263Z,13.22
2019-02-15T10:44:20.252Z,12.49
2019-02-15T10:45:20.370Z,11.93
2019-02-15T10:46:20.225Z,12.01
2019-02-15T10:47:25.045Z,12.07
2019-02-15T10:48:21.211Z,12.38
2019-02-15T10:49:20.193Z,12.88
2019-02-15T10:50:20.195Z,13.39
2019-02-15T10:51:20.187Z,13.62
2019-02-15T10:52:20.164Z,13.98
2019-02-15T10:53:20.150Z,14.27
2019-02-15T10:54:20.137Z,13.73
2019-02-15T10:55:20.137Z,13.72
2019-02-15T10:56:20.116Z,13.44
2019-02-15T10:57:20.106Z,12.71
2019-02-15T10:58:20.099Z,12.77
2019-02-15T10:59:20.086Z,13.32
2019-02-15T11:00:20.090Z,13.71
2019-02-15T11:01:20.064Z,13.59
2019-02-15T11:02:20.059Z,12.89
2019-02-15T11:03:20.064Z,12.40
2019-02-15T11:04:20.038Z,12.67
2019-02-15T11:05:20.033Z,12.99
2019-02-15T11:06:20.010Z,13.14
2019-02-15T11:07:20.000Z,13.28
2019-02-15T11:08:19.991Z,12.74
2019-02-15T11:09:19.983Z,12.48
2019-02-15T11:10:19.987Z,12.41
2019-02-15T11:11:19.961Z,12.67
2019-02-15T11:12:19.965Z,12.63
2019-02-15T11:13:19.938Z,12.89
2019-02-15T11:14:19.926Z,13.10
2019-02-15T11:15:19.929Z,13.39
2019-02-15T11:16:19.920Z,12.96
2019-02-15T11:17:19.897Z,12.56
2019-02-15T11:18:19.884Z,12.73
2019-02-15T11:19:19.879Z,13.07
2019-02-15T11:20:19.875Z,13.71
2019-02-15T11:21:19.850Z,13.63
2019-02-15T11:22:19.840Z,13.21
2019-02-15T11:23:19.847Z,13.06
2019-02-15T11:24:19.830Z,12.89
2019-02-15T11:25:19.819Z,12.98
2019-02-15T11:26:24.732Z,13.36
2019-02-15T11:27:20.785Z,14.11
2019-02-15T11:28:19.775Z,14.27
2019-02-15T11:29:19.778Z,14.26
2019-02-15T11:30:19.770Z,14.72
2019-02-15T11:31:19.743Z,15.07
2019-02-15T11:32:19.732Z,15.35
2019-02-15T11:33:19.722Z,15.76
2019-02-15T11:34:19.709Z,16.06
2019-02-15T11:35:19.714Z,16.34
2019-02-15T11:36:19.690Z,16.04
2019-02-15T11:37:19.678Z,15.37
2019-02-15T11:38:19.667Z,14.75
2019-02-15T11:39:19.680Z,14.75
2019-02-15T11:40:19.672Z,14.56
2019-02-15T11:41:19.638Z,14.45
2019-02-15T11:42:19.632Z,14.78
2019-02-15T11:43:19.615Z,14.35
2019-02-15T11:44:19.607Z,13.87
2019-02-15T11:45:19.598Z,14.05
2019-02-15T11:46:19.594Z,14.48
2019-02-15T11:47:19.572Z,14.46
2019-02-15T11:48:19.562Z,14.30
2019-02-15T11:49:19.566Z,15.00
2019-02-15T11:50:19.540Z,15.60
2019-02-15T11:51:19.545Z,14.75
2019-02-15T11:52:19.518Z,14.19
2019-02-15T11:53:19.515Z,13.96
2019-02-15T11:54:23.515Z,13.54
2019-02-15T11:55:19.487Z,13.72
2019-02-15T11:56:19.520Z,13.65
2019-02-15T11:57:19.465Z,13.48
2019-02-15T11:58:19.467Z,13.65
2019-02-15T11:59:19.452Z,13.96
2019-02-15T12:00:21.921Z,14.34
2019-02-15T12:01:19.461Z,14.98
2019-02-15T12:02:19.422Z,15.37
2019-02-15T12:03:19.413Z,15.58
2019-02-15T12:04:19.391Z,15.35
2019-02-15T12:05:19.388Z,15.71
2019-02-15T12:06:19.407Z,16.13
2019-02-15T12:07:19.377Z,15.68
2019-02-15T12:08:19.355Z,15.27
2019-02-15T12:09:19.348Z,14.85
2019-02-15T12:10:19.347Z,14.83
2019-02-15T12:11:19.342Z,14.75
2019-02-15T12:12:19.315Z,14.71
2019-02-15T12:13:19.301Z,14.72
2019-02-15T12:14:19.293Z,14.79
2019-02-15T12:15:19.282Z,14.79
2019-02-15T12:16:19.280Z,14.93
2019-02-15T12:17:19.258Z,15.13
2019-02-15T12:18:19.246Z,15.18
2019-02-15T12:19:19.236Z,15.27
2019-02-15T12:20:19.227Z,15.91
2019-02-15T12:21:19.229Z,16.60
2019-02-15T12:22:19.232Z,16.60
2019-02-15T12:23:19.195Z,15.86
2019-02-15T12:24:19.185Z,15.16
2019-02-15T12:25:19.183Z,14.67
2019-02-15T12:26:19.183Z,14.46
2019-02-15T12:27:19.147Z,14.59
2019-02-15T12:28:19.141Z,14.46
2019-02-15T12:29:19.133Z,14.12
2019-02-15T12:30:19.112Z,14.38
2019-02-15T12:31:19.112Z,14.64
2019-02-15T12:32:19.096Z,14.75
2019-02-15T12:33:19.082Z,15.18
2019-02-15T12:34:19.085Z,15.40
2019-02-15T12:35:19.061Z,15.58
2019-02-15T12:36:19.077Z,15.67
2019-02-15T12:37:19.090Z,15.74
2019-02-15T12:38:19.033Z,15.71
2019-02-15T12:39:19.042Z,15.59
2019-02-15T12:40:19.011Z,14.90
2019-02-15T12:41:19.026Z,14.61
2019-02-15T12:42:18.981Z,15.09
2019-02-15T12:43:18.970Z,15.66
2019-02-15T12:44:18.988Z,15.96
2019-02-15T12:45:18.966Z,16.22
2019-02-15T12:46:18.968Z,16.37
2019-02-15T12:47:18.927Z,16.77
2019-02-15T12:48:18.920Z,16.04
2019-02-15T12:49:18.906Z,16.10
2019-02-15T12:50:18.897Z,16.36
2019-02-15T12:51:18.894Z,16.82
2019-02-15T12:52:18.874Z,16.52
2019-02-15T12:53:18.871Z,16.14
2019-02-15T12:54:18.854Z,16.47
2019-02-15T12:55:18.846Z,16.23
2019-02-15T12:56:18.846Z,15.89
2019-02-15T12:57:18.821Z,15.41
2019-02-15T12:58:18.814Z,15.09
2019-02-15T12:59:18.805Z,15.16
2019-02-15T13:00:18.793Z,15.01
2019-02-15T13:01:18.795Z,15.03
2019-02-15T13:02:18.771Z,15.48
2019-02-15T13:03:18.759Z,16.16
2019-02-15T13:04:18.753Z,16.85
2019-02-15T13:05:18.750Z,17.27
2019-02-15T13:06:28.086Z,17.36
2019-02-15T13:07:19.713Z,17.51